createdAt,value
2022-08-26T00:01:31.267Z,11.00
2022-08-26T00:03:58.909Z,10.23
2022-08-26T00:06:26.347Z,10.02
2022-08-26T00:08:53.396Z,11.10
2022-08-26T00:11:26.832Z,11.10
2022-08-26T00:13:55.316Z,10.88
2022-08-26T00:16:24.855Z,11.10
2022-08-26T00:18:53.020Z,11.48
2022-08-26T00:21:20.139Z,13.00
2022-08-26T00:23:46.950Z,13.48
2022-08-26T00:26:14.420Z,12.70
2022-08-26T00:28:41.155Z,11.60
2022-08-26T00:31:11.137Z,12.40
2022-08-26T00:33:41.610Z,12.82
2022-08-26T00:36:09.536Z,12.30
2022-08-26T00:38:46.747Z,12.90
2022-08-26T00:41:13.795Z,11.27
2022-08-26T00:43:47.580Z,12.32
2022-08-26T00:46:19.745Z,12.43
2022-08-26T00:48:50.122Z,11.75
2022-08-26T00:51:29.579Z,12.65
2022-08-26T00:54:06.820Z,13.52
2022-08-26T00:56:43.358Z,15.57
2022-08-26T00:59:13.164Z,14.48
2022-08-26T01:01:41.960Z,14.27
2022-08-26T01:04:10.851Z,12.00
2022-08-26T01:06:37.691Z,12.90
2022-08-26T01:09:04.814Z,11.68
2022-08-26T01:11:32.732Z,11.55
2022-08-26T01:14:02.820Z,13.02
2022-08-26T01:16:30.177Z,14.07
2022-08-26T01:19:02.175Z,12.38
2022-08-26T01:21:36.470Z,13.48
2022-08-26T01:24:08.755Z,13.15
2022-08-26T01:26:41.550Z,11.73
2022-08-26T01:29:18.946Z,12.07
2022-08-26T01:31:55.611Z,12.35
2022-08-26T01:34:32.044Z,11.63
2022-08-26T01:37:07.371Z,11.75
2022-08-26T01:39:36.166Z,11.97
2022-08-26T01:42:05.734Z,12.70
2022-08-26T01:44:46.457Z,12.10
2022-08-26T01:47:17.278Z,11.95
2022-08-26T01:49:48.074Z,11.68
2022-08-26T01:52:24.209Z,11.75
2022-08-26T01:54:57.530Z,12.05
2022-08-26T01:57:25.357Z,14.55
2022-08-26T01:59:56.122Z,14.30
2022-08-26T02:02:24.435Z,14.57
2022-08-26T02:04:57.324Z,15.45
2022-08-26T02:07:26.639Z,16.02
2022-08-26T02:09:54.579Z,15.10
2022-08-26T02:12:21.845Z,14.32
2022-08-26T02:14:53.857Z,14.13
2022-08-26T02:17:25.878Z,15.73
2022-08-26T02:19:53.206Z,16.42
2022-08-26T02:22:24.475Z,15.38
2022-08-26T02:25:06.048Z,16.90
2022-08-26T02:27:35.184Z,15.07
2022-08-26T02:30:24.626Z,16.73
2022-08-26T02:32:53.297Z,17.15
2022-08-26T02:35:22.475Z,16.55
2022-08-26T02:37:50.656Z,15.88
2022-08-26T02:40:21.734Z,14.50
2022-08-26T02:42:49.131Z,13.65
2022-08-26T02:45:16.780Z,14.13
2022-08-26T02:47:50.696Z,12.95
2022-08-26T02:50:17.498Z,14.02
2022-08-26T02:52:44.353Z,15.30
2022-08-26T02:55:11.183Z,16.27
2022-08-26T02:57:38.087Z,15.27
2022-08-26T03:00:08.733Z,16.20
2022-08-26T03:02:35.388Z,14.75
2022-08-26T03:05:02.508Z,16.35
2022-08-26T03:07:30.041Z,14.30
2022-08-26T03:09:57.301Z,15.30
2022-08-26T03:12:24.287Z,12.68
2022-08-26T03:14:52.821Z,12.80
2022-08-26T03:17:19.515Z,12.57
2022-08-26T03:19:46.154Z,14.00
2022-08-26T03:22:14.508Z,14.43
2022-08-26T03:24:41.446Z,15.70
2022-08-26T03:27:12.729Z,18.65
2022-08-26T03:29:59.639Z,18.23
2022-08-26T03:32:27.055Z,17.50
2022-08-26T03:34:54.604Z,19.83
2022-08-26T03:37:21.699Z,18.10
2022-08-26T03:39:48.763Z,18.38
2022-08-26T03:42:16.318Z,17.40
2022-08-26T03:44:43.373Z,16.95
2022-08-26T03:47:12.001Z,16.98
2022-08-26T03:49:38.912Z,16.17
2022-08-26T03:52:06.318Z,14.55
2022-08-26T03:54:33.619Z,17.67
2022-08-26T03:57:00.281Z,19.00
2022-08-26T03:59:27.446Z,16.95
2022-08-26T04:01:54.673Z,17.90
2022-08-26T04:04:22.873Z,18.23
2022-08-26T04:06:57.654Z,16.13
2022-08-26T04:09:24.739Z,16.80
2022-08-26T04:11:51.855Z,17.25
2022-08-26T04:14:21.934Z,16.77
2022-08-26T04:16:49.210Z,17.65
2022-08-26T04:19:17.338Z,14.20
2022-08-26T04:21:46.114Z,17.67
2022-08-26T04:24:15.729Z,16.10
2022-08-26T04:26:43.900Z,17.15
2022-08-26T04:29:20.038Z,18.25
2022-08-26T04:31:50.543Z,18.77
2022-08-26T04:34:23.418Z,20.35
2022-08-26T04:36:50.258Z,21.90
2022-08-26T04:39:19.711Z,19.30
2022-08-26T04:41:48.631Z,22.95
2022-08-26T04:44:17.302Z,22.63
2022-08-26T04:46:44.402Z,17.63
2022-08-26T04:49:11.644Z,16.52
2022-08-26T04:51:39.452Z,16.65
2022-08-26T04:54:07.237Z,16.00
2022-08-26T04:56:37.287Z,15.82
2022-08-26T04:59:24.592Z,18.67
2022-08-26T05:01:53.428Z,22.10
2022-08-26T05:04:21.087Z,20.63
2022-08-26T05:06:48.789Z,19.40
2022-08-26T05:09:15.630Z,18.90
2022-08-26T05:11:42.339Z,19.35
2022-08-26T05:14:09.752Z,20.77
2022-08-26T05:16:36.668Z,23.00
2022-08-26T05:19:04.749Z,26.63
2022-08-26T05:21:31.437Z,24.27
2022-08-26T05:23:58.633Z,22.65
2022-08-26T05:26:28.711Z,21.02
2022-08-26T05:28:56.586Z,26.25
2022-08-26T05:31:29.475Z,21.55
2022-08-26T05:33:57.748Z,21.33
2022-08-26T05:36:27.695Z,22.50
2022-08-26T05:38:56.163Z,21.25
2022-08-26T05:41:34.416Z,27.48
2022-08-26T05:44:08.683Z,22.58
2022-08-26T05:46:37.169Z,21.58
2022-08-26T05:49:05.839Z,22.65
2022-08-26T05:51:36.462Z,21.75
2022-08-26T05:54:04.307Z,23.23
2022-08-26T05:56:30.931Z,21.58
2022-08-26T05:59:01.439Z,24.15
2022-08-26T06:01:29.097Z,22.77
2022-08-26T06:04:14.736Z,19.38
2022-08-26T06:06:45.020Z,21.83
2022-08-26T06:09:14.855Z,20.08
2022-08-26T06:11:45.142Z,19.88
2022-08-26T06:14:19.759Z,21.77
2022-08-26T06:16:47.037Z,18.85
2022-08-26T06:19:18.543Z,21.35
2022-08-26T06:21:53.962Z,20.15
2022-08-26T06:24:41.711Z,17.30
2022-08-26T06:27:13.408Z,18.92
2022-08-26T06:29:40.220Z,18.17
2022-08-26T06:32:09.259Z,15.40
2022-08-26T06:34:38.422Z,17.02
2022-08-26T06:37:06.367Z,17.13
2022-08-26T06:39:33.419Z,17.50
2022-08-26T06:42:17.855Z,16.83
2022-08-26T06:44:47.191Z,16.55
2022-08-26T06:47:14.886Z,17.30
2022-08-26T06:49:41.775Z,16.05
2022-08-26T06:52:11.023Z,15.02
2022-08-26T06:54:41.695Z,15.25
2022-08-26T06:57:10.824Z,13.48
2022-08-26T06:59:38.003Z,16.92
2022-08-26T07:02:06.268Z,14.43
2022-08-26T07:04:35.956Z,14.05
2022-08-26T07:07:02.772Z,15.98
2022-08-26T07:09:48.462Z,19.58
2022-08-26T07:12:30.747Z,15.38
2022-08-26T07:14:59.803Z,15.70
2022-08-26T07:17:26.643Z,16.63
2022-08-26T07:19:54.190Z,17.35
2022-08-26T07:22:21.278Z,17.55
2022-08-26T07:24:50.904Z,16.73
2022-08-26T07:27:17.761Z,18.98
2022-08-26T07:29:45.245Z,20.20
2022-08-26T07:32:17.039Z,18.65
2022-08-26T07:34:45.715Z,18.48
2022-08-26T07:37:12.619Z,17.02
2022-08-26T07:39:41.761Z,21.02
2022-08-26T07:42:13.365Z,18.30
2022-08-26T07:44:41.879Z,17.50
2022-08-26T07:47:25.115Z,19.10
2022-08-26T07:49:55.011Z,18.67
2022-08-26T07:52:26.347Z,20.23
2022-08-26T07:54:57.916Z,19.23
2022-08-26T07:57:25.284Z,17.17
2022-08-26T07:59:55.057Z,17.17
2022-08-26T08:02:23.733Z,17.58
2022-08-26T08:04:52.083Z,17.00
2022-08-26T08:07:18.799Z,17.00
2022-08-26T08:09:45.456Z,16.83
2022-08-26T08:12:21.160Z,16.92
2022-08-26T08:14:52.597Z,17.08
2022-08-26T08:17:19.676Z,18.23
2022-08-26T08:19:48.017Z,17.08
2022-08-26T08:22:19.798Z,17.45
2022-08-26T08:24:49.951Z,18.80
2022-08-26T08:27:23.666Z,18.13
2022-08-26T08:29:54.284Z,17.23
2022-08-26T08:32:23.016Z,14.07
2022-08-26T08:34:49.719Z,15.00
2022-08-26T08:37:16.601Z,15.20
2022-08-26T08:39:43.319Z,13.07
2022-08-26T08:42:37.148Z,13.82
2022-08-26T08:45:10.433Z,13.27
2022-08-26T08:47:47.486Z,12.55
2022-08-26T08:50:33.957Z,12.80
2022-08-26T08:53:12.902Z,12.77
2022-08-26T08:55:53.023Z,12.13
2022-08-26T08:58:23.501Z,10.88
2022-08-26T09:00:57.374Z,11.05
2022-08-26T09:03:42.785Z,10.65
2022-08-26T09:06:17.422Z,10.23
2022-08-26T09:08:47.098Z,9.93
2022-08-26T09:11:19.142Z,10.68
2022-08-26T09:13:52.773Z,9.63
2022-08-26T09:16:41.852Z,9.23
2022-08-26T09:19:32.577Z,7.80
2022-08-26T09:22:02.247Z,6.40
2022-08-26T09:24:41.617Z,7.03
2022-08-26T09:27:08.887Z,6.10
2022-08-26T09:29:43.951Z,5.65
2022-08-26T09:32:16.328Z,5.90
2022-08-26T09:34:58.714Z,5.65
2022-08-26T09:40:27.511Z,4.93
2022-08-26T09:43:04.130Z,4.70
2022-08-26T09:45:30.883Z,4.95
2022-08-26T09:48:01.283Z,4.05
2022-08-26T09:50:38.314Z,4.32
2022-08-26T09:53:21.099Z,4.28
2022-08-26T09:56:12.219Z,3.65
2022-08-26T09:58:42.587Z,3.63
2022-08-26T10:01:36.527Z,3.80
2022-08-26T10:04:19.897Z,3.28
2022-08-26T10:06:59.180Z,2.90
2022-08-26T10:09:26.569Z,2.60
2022-08-26T10:12:02.292Z,3.60
2022-08-26T10:14:39.984Z,4.10
2022-08-26T10:17:50.242Z,3.35
2022-08-26T10:20:34.756Z,3.38
2022-08-26T10:23:15.032Z,2.63
2022-08-26T10:26:00.330Z,2.28
2022-08-26T10:28:49.028Z,2.45
2022-08-26T10:31:40.282Z,2.67
2022-08-26T10:34:12.469Z,3.42
2022-08-26T10:37:10.507Z,3.63
2022-08-26T10:39:43.866Z,3.28
2022-08-26T10:42:48.325Z,3.00
2022-08-26T10:45:25.189Z,2.70
2022-08-26T10:47:54.688Z,3.22
2022-08-26T10:50:26.175Z,3.42
2022-08-26T10:53:02.005Z,2.95
2022-08-26T10:58:11.632Z,2.70
2022-08-26T11:01:10.203Z,2.85
2022-08-26T11:04:06.031Z,3.03
2022-08-26T11:06:32.902Z,2.65
2022-08-26T11:09:06.275Z,2.58
2022-08-26T11:11:42.446Z,2.40
2022-08-26T11:16:52.663Z,1.90
2022-08-26T11:19:59.732Z,1.90
2022-08-26T11:22:32.027Z,2.08
2022-08-26T11:24:58.863Z,1.95
2022-08-26T11:27:26.215Z,2.30
2022-08-26T11:30:01.242Z,2.05
2022-08-26T11:32:33.719Z,2.55
2022-08-26T11:35:34.957Z,1.98
2022-08-26T11:38:20.260Z,2.40
2022-08-26T11:40:58.150Z,2.50
2022-08-26T11:43:29.890Z,2.28
2022-08-26T11:46:10.651Z,1.90
2022-08-26T11:48:43.050Z,2.03
2022-08-26T11:51:21.994Z,2.30
2022-08-26T11:53:49.196Z,2.03
2022-08-26T11:56:33.273Z,2.13
2022-08-26T11:59:03.595Z,1.73
2022-08-26T12:01:35.595Z,2.03
2022-08-26T12:04:13.789Z,2.13
2022-08-26T12:06:51.009Z,2.33
2022-08-26T12:09:30.327Z,2.25
2022-08-26T12:12:15.496Z,2.28
2022-08-26T12:14:43.092Z,1.90
2022-08-26T12:17:18.690Z,2.00
2022-08-26T12:19:45.971Z,1.77
2022-08-26T12:22:22.542Z,2.22
2022-08-26T12:24:54.260Z,2.22
2022-08-26T12:27:20.933Z,2.00
2022-08-26T12:30:24.391Z,2.00
2022-08-26T12:33:12.492Z,2.20
2022-08-26T12:38:24.417Z,2.53
2022-08-26T12:40:51.044Z,2.20
2022-08-26T12:43:56.709Z,2.40
2022-08-26T12:46:28.610Z,2.00
2022-08-26T12:49:01.062Z,2.15
2022-08-26T12:51:30.722Z,2.40
2022-08-26T12:53:58.267Z,2.22
2022-08-26T12:56:40.643Z,2.40
2022-08-26T12:59:18.352Z,2.25
2022-08-26T13:01:46.742Z,2.30
2022-08-26T13:04:40.737Z,2.20
2022-08-26T13:07:27.185Z,2.28
2022-08-26T13:12:33.559Z,2.47
2022-08-26T13:15:01.650Z,2.03
2022-08-26T13:17:30.258Z,1.92
2022-08-26T13:20:03.304Z,1.80
2022-08-26T13:22:30.305Z,2.15
2022-08-26T13:24:57.416Z,2.20
2022-08-26T13:27:26.441Z,2.28
2022-08-26T13:29:54.336Z,2.17
2022-08-26T13:32:22.554Z,1.85
2022-08-26T13:34:55.142Z,2.05
2022-08-26T13:37:22.389Z,2.10
2022-08-26T13:40:04.982Z,1.98
2022-08-26T13:42:31.645Z,1.83
2022-08-26T13:44:58.906Z,2.10
2022-08-26T13:47:26.151Z,1.88
2022-08-26T13:49:54.831Z,2.05
2022-08-26T13:52:30.584Z,1.60
2022-08-26T13:55:00.451Z,2.10
2022-08-26T13:57:29.858Z,1.65
2022-08-26T14:00:01.892Z,2.00
2022-08-26T14:02:28.554Z,2.13
2022-08-26T14:04:55.988Z,2.10
2022-08-26T14:07:23.130Z,1.77
2022-08-26T14:09:49.710Z,1.65
2022-08-26T14:12:16.806Z,1.77
2022-08-26T14:14:43.562Z,1.80
2022-08-26T14:17:10.129Z,1.52
2022-08-26T14:19:36.943Z,1.55
2022-08-26T14:22:04.044Z,1.45
2022-08-26T14:24:30.731Z,1.98
2022-08-26T14:26:57.479Z,1.60
2022-08-26T14:29:24.140Z,1.75
2022-08-26T14:31:50.800Z,2.10
2022-08-26T14:34:17.696Z,2.05
2022-08-26T14:36:44.385Z,2.30
2022-08-26T14:39:13.538Z,2.22
2022-08-26T14:41:45.610Z,2.35
2022-08-26T14:44:22.249Z,1.92
2022-08-26T14:46:51.111Z,1.73
2022-08-26T14:49:19.461Z,1.85
2022-08-26T14:51:46.625Z,1.80
2022-08-26T14:54:17.603Z,1.77
2022-08-26T14:57:05.975Z,1.83
2022-08-26T14:59:36.191Z,1.90
2022-08-26T15:02:04.649Z,1.70
2022-08-26T15:04:31.565Z,1.35
2022-08-26T15:07:00.498Z,1.80
2022-08-26T15:09:28.964Z,1.63
2022-08-26T15:11:58.072Z,1.50
2022-08-26T15:14:27.590Z,1.60
2022-08-26T15:16:57.107Z,1.45
2022-08-26T15:19:25.688Z,2.67
2022-08-26T15:21:52.962Z,2.15
2022-08-26T15:24:22.475Z,2.33
2022-08-26T15:26:49.585Z,1.50
2022-08-26T15:29:16.847Z,2.08
2022-08-26T15:31:43.664Z,1.63
2022-08-26T15:34:16.326Z,1.58
2022-08-26T15:36:45.912Z,1.92
2022-08-26T15:39:12.988Z,2.10
2022-08-26T15:41:39.531Z,2.25
2022-08-26T15:44:07.616Z,1.75
2022-08-26T15:46:34.939Z,1.77
2022-08-26T15:49:03.222Z,1.85
2022-08-26T15:51:35.420Z,1.75
2022-08-26T15:54:13.802Z,1.95
2022-08-26T15:56:40.409Z,1.80
2022-08-26T15:59:07.989Z,2.05
2022-08-26T16:01:35.107Z,2.42
2022-08-26T16:04:02.116Z,2.10
2022-08-26T16:06:31.706Z,2.17
2022-08-26T16:08:59.148Z,1.95
2022-08-26T16:11:26.429Z,1.90
2022-08-26T16:13:53.467Z,1.80
2022-08-26T16:16:21.504Z,2.20
2022-08-26T16:18:48.582Z,2.10
2022-08-26T16:21:20.537Z,1.90
2022-08-26T16:23:47.301Z,1.92
2022-08-26T16:26:23.114Z,2.10
2022-08-26T16:28:56.774Z,1.98
2022-08-26T16:31:29.892Z,1.80
2022-08-26T16:33:56.797Z,1.85
2022-08-26T16:36:24.135Z,2.45
2022-08-26T16:39:16.149Z,2.10
2022-08-26T16:41:44.148Z,2.10
2022-08-26T16:44:12.027Z,2.15
2022-08-26T16:46:39.655Z,2.40
2022-08-26T16:49:06.822Z,2.25
2022-08-26T16:51:41.147Z,2.60
2022-08-26T16:54:09.036Z,2.80
2022-08-26T16:56:37.419Z,2.10
2022-08-26T16:59:14.086Z,2.10
2022-08-26T17:01:47.791Z,2.90
2022-08-26T17:04:14.725Z,1.90
2022-08-26T17:06:41.747Z,2.13
2022-08-26T17:09:23.444Z,2.05
2022-08-26T17:11:53.076Z,2.08
2022-08-26T17:14:20.027Z,2.03
2022-08-26T17:16:49.952Z,2.78
2022-08-26T17:19:34.543Z,2.70
2022-08-26T17:22:09.014Z,2.60
2022-08-26T17:24:35.845Z,3.17
2022-08-26T17:27:02.560Z,2.05
2022-08-26T17:29:31.184Z,3.10
2022-08-26T17:31:59.625Z,2.78
2022-08-26T17:34:26.633Z,2.58
2022-08-26T17:36:56.073Z,2.47
2022-08-26T17:39:25.251Z,3.03
2022-08-26T17:41:52.141Z,2.67
2022-08-26T17:44:19.033Z,2.72
2022-08-26T17:46:58.785Z,3.63
2022-08-26T17:49:35.473Z,2.70
2022-08-26T17:52:02.753Z,2.92
2022-08-26T17:54:30.148Z,2.65
2022-08-26T17:57:00.836Z,3.25
2022-08-26T17:59:41.002Z,4.40
2022-08-26T18:02:12.813Z,4.60
2022-08-26T18:04:39.932Z,4.40
2022-08-26T18:07:19.638Z,2.80
2022-08-26T18:12:15.782Z,2.08
2022-08-26T18:14:49.716Z,2.20
2022-08-26T18:17:19.511Z,2.88
2022-08-26T18:19:50.571Z,2.40
2022-08-26T18:22:23.254Z,1.98
2022-08-26T18:24:52.771Z,2.50
2022-08-26T18:27:36.544Z,2.20
2022-08-26T18:30:35.444Z,2.60
2022-08-26T18:33:15.105Z,2.75
2022-08-26T18:35:45.335Z,4.38
2022-08-26T18:38:14.261Z,5.07
2022-08-26T18:40:44.060Z,5.10
2022-08-26T18:44:00.038Z,5.05
2022-08-26T18:46:29.883Z,3.25
2022-08-26T18:48:57.826Z,3.67
2022-08-26T18:51:29.907Z,3.60
2022-08-26T18:53:57.277Z,4.78
2022-08-26T18:56:34.757Z,4.95
2022-08-26T18:59:33.506Z,4.13
2022-08-26T19:02:10.262Z,3.23
2022-08-26T19:04:48.507Z,2.80
2022-08-26T19:07:15.174Z,2.95
2022-08-26T19:09:41.886Z,3.30
2022-08-26T19:12:08.931Z,3.17
2022-08-26T19:14:40.841Z,3.13
2022-08-26T19:17:15.020Z,3.38
2022-08-26T19:20:17.912Z,3.78
2022-08-26T19:22:59.640Z,4.00
2022-08-26T19:28:19.755Z,4.00
2022-08-26T19:30:53.654Z,3.88
2022-08-26T19:33:30.007Z,4.05
2022-08-26T19:36:32.912Z,3.47
2022-08-26T19:39:00.462Z,4.40
2022-08-26T19:41:44.084Z,5.20
2022-08-26T19:44:49.300Z,4.18
2022-08-26T19:47:18.031Z,3.53
2022-08-26T19:50:02.913Z,3.33
2022-08-26T19:52:33.389Z,4.00
2022-08-26T19:55:03.880Z,3.67
2022-08-26T19:57:33.906Z,3.58
2022-08-26T20:00:01.112Z,2.85
2022-08-26T20:02:28.876Z,3.80
2022-08-26T20:05:08.171Z,3.80
2022-08-26T20:07:35.706Z,3.95
2022-08-26T20:10:13.180Z,3.50
2022-08-26T20:12:42.958Z,4.10
2022-08-26T20:15:14.528Z,3.83
2022-08-26T20:17:49.957Z,4.80
2022-08-26T20:20:39.008Z,4.15
2022-08-26T20:23:07.996Z,4.30
2022-08-26T20:25:43.618Z,3.97
2022-08-26T20:28:10.453Z,4.15
2022-08-26T20:30:38.905Z,3.83
2022-08-26T20:33:44.379Z,4.20
2022-08-26T20:36:35.198Z,3.67
2022-08-26T20:39:11.030Z,4.03
2022-08-26T20:41:38.923Z,4.18
2022-08-26T20:44:11.317Z,3.80
2022-08-26T20:46:38.968Z,3.38
2022-08-26T20:49:12.719Z,3.45
2022-08-26T20:51:42.968Z,3.47
2022-08-26T20:54:15.405Z,3.83
2022-08-26T20:56:42.278Z,3.75
2022-08-26T20:59:12.301Z,4.07
2022-08-26T21:01:46.778Z,3.85
2022-08-26T21:04:23.241Z,3.20
2022-08-26T21:06:54.607Z,3.63
2022-08-26T21:09:28.956Z,3.83
2022-08-26T21:12:09.247Z,3.83
2022-08-26T21:14:36.016Z,3.85
2022-08-26T21:17:15.557Z,4.97
2022-08-26T21:26:13.385Z,5.57
2022-08-26T21:28:42.616Z,5.15
2022-08-26T21:31:12.864Z,5.57
2022-08-26T21:33:39.560Z,5.80
2022-08-26T21:36:09.299Z,6.50
2022-08-26T21:38:40.169Z,6.70
2022-08-26T21:41:14.020Z,5.95
2022-08-26T21:43:41.977Z,6.05
2022-08-26T21:46:14.783Z,5.78
2022-08-26T21:48:54.690Z,5.93
2022-08-26T21:51:24.201Z,5.70
2022-08-26T21:53:53.006Z,5.30
2022-08-26T21:56:21.169Z,5.55
2022-08-26T21:58:47.865Z,4.97
2022-08-26T22:01:17.700Z,4.60
2022-08-26T22:03:47.542Z,4.30
2022-08-26T22:06:16.521Z,4.35
2022-08-26T22:08:43.285Z,4.63
2022-08-26T22:11:10.477Z,4.22
2022-08-26T22:13:39.152Z,4.95
2022-08-26T22:16:06.797Z,4.63
2022-08-26T22:18:34.110Z,5.00
2022-08-26T22:21:05.242Z,5.90
2022-08-26T22:23:31.944Z,5.93
2022-08-26T22:25:59.392Z,5.97
2022-08-26T22:28:26.550Z,6.35
2022-08-26T22:30:53.105Z,4.60
2022-08-26T22:33:19.923Z,4.22
2022-08-26T22:35:48.656Z,4.97
2022-08-26T22:38:15.322Z,5.25
2022-08-26T22:40:50.445Z,4.95
2022-08-26T22:43:18.851Z,5.93
2022-08-26T22:45:48.195Z,5.82
2022-08-26T22:48:17.573Z,5.78
2022-08-26T22:50:46.180Z,6.18
2022-08-26T22:53:13.515Z,6.55
2022-08-26T22:55:40.162Z,5.60
2022-08-26T22:58:07.064Z,4.10
2022-08-26T23:00:34.259Z,4.07
2022-08-26T23:03:01.801Z,3.92
2022-08-26T23:05:28.678Z,3.75
2022-08-26T23:07:56.649Z,3.92
2022-08-26T23:10:24.397Z,4.05
2022-08-26T23:12:52.517Z,3.90
2022-08-26T23:15:20.115Z,3.83
2022-08-26T23:17:47.081Z,4.53
2022-08-26T23:20:20.240Z,4.15
2022-08-26T23:22:46.773Z,3.90
2022-08-26T23:25:14.858Z,4.70
2022-08-26T23:27:43.294Z,5.05
2022-08-26T23:30:14.518Z,5.53
2022-08-26T23:32:41.292Z,5.00
2022-08-26T23:35:09.800Z,5.05
2022-08-26T23:37:43.676Z,5.10
2022-08-26T23:40:18.657Z,5.93
2022-08-26T23:42:45.357Z,5.28
2022-08-26T23:45:13.645Z,6.25
2022-08-26T23:47:41.254Z,6.88
2022-08-26T23:50:08.855Z,7.28
2022-08-26T23:52:53.927Z,8.02
2022-08-26T23:55:20.577Z,7.57
2022-08-26T23:57:47.326Z,8.80
